sensor_id;sensor_type;location;lat;lon;timestamp;P1;durP1;ratioP1;P2;durP2;ratioP2
12603;SDS011;6367;52.508;13.284;2022-09-06T00:00:03;5.50;;;1.70;;
12603;SDS011;6367;52.508;13.284;2022-09-06T00:02:32;1.83;;;1.60;;
12603;SDS011;6367;52.508;13.284;2022-09-06T00:04:58;3.67;;;1.80;;
12603;SDS011;6367;52.508;13.284;2022-09-06T00:07:24;4.73;;;1.77;;
12603;SDS011;6367;52.508;13.284;2022-09-06T00:09:49;3.03;;;1.77;;
12603;SDS011;6367;52.508;13.284;2022-09-06T00:12:15;2.67;;;1.63;;
12603;SDS011;6367;52.508;13.284;2022-09-06T00:14:40;7.90;;;2.00;;
12603;SDS011;6367;52.508;13.284;2022-09-06T00:17:09;2.67;;;1.40;;
12603;SDS011;6367;52.508;13.284;2022-09-06T00:19:34;4.43;;;1.70;;
12603;SDS011;6367;52.508;13.284;2022-09-06T00:22:00;2.37;;;1.70;;
12603;SDS011;6367;52.508;13.284;2022-09-06T00:24:26;4.00;;;1.90;;
12603;SDS011;6367;52.508;13.284;2022-09-06T00:26:51;3.63;;;1.77;;
12603;SDS011;6367;52.508;13.284;2022-09-06T00:29:17;2.97;;;1.87;;
12603;SDS011;6367;52.508;13.284;2022-09-06T00:31:43;3.13;;;1.80;;
12603;SDS011;6367;52.508;13.284;2022-09-06T00:34:08;1.70;;;1.47;;
12603;SDS011;6367;52.508;13.284;2022-09-06T00:36:34;2.03;;;1.70;;
12603;SDS011;6367;52.508;13.284;2022-09-06T00:39:00;1.47;;;1.10;;
12603;SDS011;6367;52.508;13.284;2022-09-06T00:41:25;2.80;;;1.50;;
12603;SDS011;6367;52.508;13.284;2022-09-06T00:43:51;2.53;;;1.50;;
12603;SDS011;6367;52.508;13.284;2022-09-06T00:46:18;2.90;;;1.50;;
12603;SDS011;6367;52.508;13.284;2022-09-06T00:48:47;1.67;;;1.43;;
12603;SDS011;6367;52.508;13.284;2022-09-06T00:51:17;1.97;;;1.40;;
12603;SDS011;6367;52.508;13.284;2022-09-06T00:53:44;1.90;;;1.13;;
12603;SDS011;6367;52.508;13.284;2022-09-06T00:56:11;2.43;;;1.30;;
12603;SDS011;6367;52.508;13.284;2022-09-06T00:58:37;2.10;;;1.20;;
12603;SDS011;6367;52.508;13.284;2022-09-06T01:01:03;2.13;;;1.27;;
12603;SDS011;6367;52.508;13.284;2022-09-06T01:03:29;2.13;;;1.10;;
12603;SDS011;6367;52.508;13.284;2022-09-06T01:08:47;2.20;;;1.33;;
12603;SDS011;6367;52.508;13.284;2022-09-06T01:16:50;2.50;;;1.77;;
12603;SDS011;6367;52.508;13.284;2022-09-06T01:39:27;3.00;;;1.30;;
12603;SDS011;6367;52.508;13.284;2022-09-06T01:41:54;3.73;;;1.50;;
12603;SDS011;6367;52.508;13.284;2022-09-06T01:44:23;2.07;;;1.30;;
12603;SDS011;6367;52.508;13.284;2022-09-06T01:52:12;3.43;;;1.20;;
12603;SDS011;6367;52.508;13.284;2022-09-06T02:02:47;3.40;;;1.60;;
12603;SDS011;6367;52.508;13.284;2022-09-06T02:05:44;1.87;;;1.33;;
12603;SDS011;6367;52.508;13.284;2022-09-06T02:08:20;1.93;;;1.30;;
12603;SDS011;6367;52.508;13.284;2022-09-06T02:10:56;1.60;;;1.30;;
12603;SDS011;6367;52.508;13.284;2022-09-06T02:13:26;7.80;;;1.20;;
12603;SDS011;6367;52.508;13.284;2022-09-06T02:16:03;1.50;;;1.10;;
12603;SDS011;6367;52.508;13.284;2022-09-06T02:18:32;3.27;;;1.40;;
12603;SDS011;6367;52.508;13.284;2022-09-06T02:21:01;1.30;;;1.00;;
12603;SDS011;6367;52.508;13.284;2022-09-06T02:23:30;2.20;;;1.43;;
12603;SDS011;6367;52.508;13.284;2022-09-06T02:26:03;2.60;;;1.33;;
12603;SDS011;6367;52.508;13.284;2022-09-06T02:28:44;1.60;;;1.30;;
12603;SDS011;6367;52.508;13.284;2022-09-06T02:31:11;1.73;;;1.33;;
12603;SDS011;6367;52.508;13.284;2022-09-06T02:33:45;1.37;;;1.13;;
12603;SDS011;6367;52.508;13.284;2022-09-06T02:36:12;1.50;;;1.40;;
12603;SDS011;6367;52.508;13.284;2022-09-06T02:38:40;2.43;;;1.30;;
12603;SDS011;6367;52.508;13.284;2022-09-06T02:41:07;1.40;;;1.30;;
12603;SDS011;6367;52.508;13.284;2022-09-06T02:43:33;3.33;;;1.47;;
12603;SDS011;6367;52.508;13.284;2022-09-06T02:45:59;3.93;;;1.50;;
12603;SDS011;6367;52.508;13.284;2022-09-06T02:48:24;2.30;;;1.30;;
12603;SDS011;6367;52.508;13.284;2022-09-06T02:50:50;1.80;;;1.23;;
12603;SDS011;6367;52.508;13.284;2022-09-06T02:53:15;2.80;;;1.23;;
12603;SDS011;6367;52.508;13.284;2022-09-06T02:55:41;1.70;;;1.50;;
12603;SDS011;6367;52.508;13.284;2022-09-06T02:58:09;1.63;;;1.33;;
12603;SDS011;6367;52.508;13.284;2022-09-06T03:00:35;1.60;;;1.50;;
12603;SDS011;6367;52.508;13.284;2022-09-06T03:03:02;1.87;;;1.53;;
12603;SDS011;6367;52.508;13.284;2022-09-06T03:05:28;1.17;;;1.07;;
12603;SDS011;6367;52.508;13.284;2022-09-06T03:07:54;1.23;;;1.10;;
12603;SDS011;6367;52.508;13.284;2022-09-06T03:10:20;2.90;;;1.20;;
12603;SDS011;6367;52.508;13.284;2022-09-06T03:12:46;2.40;;;1.40;;
12603;SDS011;6367;52.508;13.284;2022-09-06T03:15:12;1.67;;;1.20;;
12603;SDS011;6367;52.508;13.284;2022-09-06T03:17:39;1.43;;;1.33;;
12603;SDS011;6367;52.508;13.284;2022-09-06T03:20:05;2.90;;;1.50;;
12603;SDS011;6367;52.508;13.284;2022-09-06T03:22:33;1.90;;;1.20;;
12603;SDS011;6367;52.508;13.284;2022-09-06T03:24:59;2.37;;;1.33;;
12603;SDS011;6367;52.508;13.284;2022-09-06T03:27:25;3.27;;;1.40;;
12603;SDS011;6367;52.508;13.284;2022-09-06T03:29:50;1.43;;;1.33;;
12603;SDS011;6367;52.508;13.284;2022-09-06T03:32:16;2.87;;;1.30;;
12603;SDS011;6367;52.508;13.284;2022-09-06T03:34:41;1.93;;;1.60;;
12603;SDS011;6367;52.508;13.284;2022-09-06T03:37:07;2.20;;;1.40;;
12603;SDS011;6367;52.508;13.284;2022-09-06T03:39:33;1.73;;;1.30;;
12603;SDS011;6367;52.508;13.284;2022-09-06T03:41:58;3.17;;;1.43;;
12603;SDS011;6367;52.508;13.284;2022-09-06T03:44:24;1.73;;;1.03;;
12603;SDS011;6367;52.508;13.284;2022-09-06T03:46:49;2.00;;;1.63;;
12603;SDS011;6367;52.508;13.284;2022-09-06T03:49:16;3.67;;;1.50;;
12603;SDS011;6367;52.508;13.284;2022-09-06T03:51:41;3.13;;;1.90;;
12603;SDS011;6367;52.508;13.284;2022-09-06T03:54:07;1.47;;;1.37;;
12603;SDS011;6367;52.508;13.284;2022-09-06T03:56:33;2.77;;;1.57;;
12603;SDS011;6367;52.508;13.284;2022-09-06T03:58:59;3.57;;;1.57;;
12603;SDS011;6367;52.508;13.284;2022-09-06T04:01:24;2.17;;;1.27;;
12603;SDS011;6367;52.508;13.284;2022-09-06T04:03:50;2.97;;;1.80;;
12603;SDS011;6367;52.508;13.284;2022-09-06T04:06:16;1.67;;;1.57;;
12603;SDS011;6367;52.508;13.284;2022-09-06T04:08:41;1.50;;;1.40;;
12603;SDS011;6367;52.508;13.284;2022-09-06T04:11:07;1.57;;;1.40;;
12603;SDS011;6367;52.508;13.284;2022-09-06T04:13:33;1.30;;;1.20;;
12603;SDS011;6367;52.508;13.284;2022-09-06T04:15:58;5.23;;;1.33;;
12603;SDS011;6367;52.508;13.284;2022-09-06T04:18:25;1.60;;;1.50;;
12603;SDS011;6367;52.508;13.284;2022-09-06T04:20:51;2.37;;;1.70;;
12603;SDS011;6367;52.508;13.284;2022-09-06T04:23:18;2.30;;;1.60;;
12603;SDS011;6367;52.508;13.284;2022-09-06T04:25:54;2.13;;;1.40;;
12603;SDS011;6367;52.508;13.284;2022-09-06T04:28:20;2.10;;;1.30;;
12603;SDS011;6367;52.508;13.284;2022-09-06T04:30:56;1.30;;;1.20;;
12603;SDS011;6367;52.508;13.284;2022-09-06T04:33:23;2.23;;;1.47;;
12603;SDS011;6367;52.508;13.284;2022-09-06T04:35:57;2.67;;;1.70;;
12603;SDS011;6367;52.508;13.284;2022-09-06T04:38:24;1.93;;;1.50;;
12603;SDS011;6367;52.508;13.284;2022-09-06T04:40:51;2.80;;;1.60;;
12603;SDS011;6367;52.508;13.284;2022-09-06T04:43:17;3.70;;;1.67;;
12603;SDS011;6367;52.508;13.284;2022-09-06T04:45:43;3.20;;;1.50;;
12603;SDS011;6367;52.508;13.284;2022-09-06T04:48:09;1.30;;;1.20;;
12603;SDS011;6367;52.508;13.284;2022-09-06T04:50:35;2.23;;;1.43;;
12603;SDS011;6367;52.508;13.284;2022-09-06T04:53:04;3.37;;;1.60;;
12603;SDS011;6367;52.508;13.284;2022-09-06T04:55:30;2.23;;;2.03;;
12603;SDS011;6367;52.508;13.284;2022-09-06T04:57:56;3.07;;;1.20;;
12603;SDS011;6367;52.508;13.284;2022-09-06T05:00:25;2.70;;;1.53;;
12603;SDS011;6367;52.508;13.284;2022-09-06T05:02:51;2.67;;;1.80;;
12603;SDS011;6367;52.508;13.284;2022-09-06T05:05:17;1.67;;;1.40;;
12603;SDS011;6367;52.508;13.284;2022-09-06T05:07:42;4.47;;;1.73;;
12603;SDS011;6367;52.508;13.284;2022-09-06T05:10:08;2.90;;;1.70;;
12603;SDS011;6367;52.508;13.284;2022-09-06T05:12:34;2.77;;;1.77;;
12603;SDS011;6367;52.508;13.284;2022-09-06T05:14:59;4.33;;;1.70;;
12603;SDS011;6367;52.508;13.284;2022-09-06T05:17:25;1.90;;;1.67;;
12603;SDS011;6367;52.508;13.284;2022-09-06T05:19:50;3.77;;;1.47;;
12603;SDS011;6367;52.508;13.284;2022-09-06T05:22:16;3.17;;;1.50;;
12603;SDS011;6367;52.508;13.284;2022-09-06T05:24:42;1.73;;;1.60;;
12603;SDS011;6367;52.508;13.284;2022-09-06T05:27:07;2.20;;;1.60;;
12603;SDS011;6367;52.508;13.284;2022-09-06T05:29:33;2.60;;;1.50;;
12603;SDS011;6367;52.508;13.284;2022-09-06T05:31:59;1.67;;;1.50;;
12603;SDS011;6367;52.508;13.284;2022-09-06T05:34:24;1.77;;;1.60;;
12603;SDS011;6367;52.508;13.284;2022-09-06T05:36:50;2.50;;;1.80;;
12603;SDS011;6367;52.508;13.284;2022-09-06T05:39:15;2.07;;;1.30;;
12603;SDS011;6367;52.508;13.284;2022-09-06T05:41:45;7.00;;;2.20;;
12603;SDS011;6367;52.508;13.284;2022-09-06T05:44:11;2.23;;;1.53;;
12603;SDS011;6367;52.508;13.284;2022-09-06T05:46:42;2.40;;;1.47;;
12603;SDS011;6367;52.508;13.284;2022-09-06T05:49:09;1.97;;;1.40;;
12603;SDS011;6367;52.508;13.284;2022-09-06T05:51:36;2.73;;;1.60;;
12603;SDS011;6367;52.508;13.284;2022-09-06T05:54:01;1.87;;;1.63;;
12603;SDS011;6367;52.508;13.284;2022-09-06T05:56:27;2.80;;;1.50;;
12603;SDS011;6367;52.508;13.284;2022-09-06T05:58:53;2.73;;;2.00;;
12603;SDS011;6367;52.508;13.284;2022-09-06T06:03:53;2.30;;;1.67;;
12603;SDS011;6367;52.508;13.284;2022-09-06T06:06:25;2.10;;;1.50;;
12603;SDS011;6367;52.508;13.284;2022-09-06T06:08:56;6.17;;;1.80;;
12603;SDS011;6367;52.508;13.284;2022-09-06T06:11:22;3.47;;;2.10;;
12603;SDS011;6367;52.508;13.284;2022-09-06T06:13:49;2.70;;;2.07;;
12603;SDS011;6367;52.508;13.284;2022-09-06T06:16:16;3.73;;;1.70;;
12603;SDS011;6367;52.508;13.284;2022-09-06T06:18:43;1.40;;;1.30;;
12603;SDS011;6367;52.508;13.284;2022-09-06T06:21:10;2.60;;;1.50;;
12603;SDS011;6367;52.508;13.284;2022-09-06T06:23:37;1.73;;;1.50;;
12603;SDS011;6367;52.508;13.284;2022-09-06T06:26:04;2.73;;;1.63;;
12603;SDS011;6367;52.508;13.284;2022-09-06T06:28:30;4.67;;;1.80;;
12603;SDS011;6367;52.508;13.284;2022-09-06T06:30:56;4.80;;;1.57;;
12603;SDS011;6367;52.508;13.284;2022-09-06T06:33:21;2.17;;;1.77;;
12603;SDS011;6367;52.508;13.284;2022-09-06T06:36:13;2.83;;;1.70;;
12603;SDS011;6367;52.508;13.284;2022-09-06T06:38:42;2.40;;;1.53;;
12603;SDS011;6367;52.508;13.284;2022-09-06T06:41:10;3.03;;;1.47;;
12603;SDS011;6367;52.508;13.284;2022-09-06T06:43:37;1.90;;;1.60;;
12603;SDS011;6367;52.508;13.284;2022-09-06T06:48:36;2.40;;;1.60;;
12603;SDS011;6367;52.508;13.284;2022-09-06T06:51:07;3.70;;;1.40;;
12603;SDS011;6367;52.508;13.284;2022-09-06T06:53:33;5.83;;;1.57;;
12603;SDS011;6367;52.508;13.284;2022-09-06T06:55:59;5.43;;;1.60;;
12603;SDS011;6367;52.508;13.284;2022-09-06T06:58:25;3.17;;;1.80;;
12603;SDS011;6367;52.508;13.284;2022-09-06T07:00:51;5.43;;;2.00;;
12603;SDS011;6367;52.508;13.284;2022-09-06T07:03:16;2.60;;;1.67;;
12603;SDS011;6367;52.508;13.284;2022-09-06T07:05:42;6.30;;;2.10;;
12603;SDS011;6367;52.508;13.284;2022-09-06T07:08:09;6.53;;;1.90;;
12603;SDS011;6367;52.508;13.284;2022-09-06T07:10:34;6.30;;;1.83;;
12603;SDS011;6367;52.508;13.284;2022-09-06T07:13:00;1.63;;;1.53;;
12603;SDS011;6367;52.508;13.284;2022-09-06T07:15:26;3.10;;;2.13;;
12603;SDS011;6367;52.508;13.284;2022-09-06T07:17:53;3.77;;;2.00;;
12603;SDS011;6367;52.508;13.284;2022-09-06T07:20:19;3.50;;;2.33;;
12603;SDS011;6367;52.508;13.284;2022-09-06T07:22:45;4.50;;;2.10;;
12603;SDS011;6367;52.508;13.284;2022-09-06T07:25:11;3.40;;;2.07;;
12603;SDS011;6367;52.508;13.284;2022-09-06T07:27:37;4.17;;;2.03;;
12603;SDS011;6367;52.508;13.284;2022-09-06T07:30:03;2.93;;;2.30;;
12603;SDS011;6367;52.508;13.284;2022-09-06T07:32:29;3.73;;;2.33;;
12603;SDS011;6367;52.508;13.284;2022-09-06T07:34:57;3.00;;;2.20;;
12603;SDS011;6367;52.508;13.284;2022-09-06T07:37:23;3.50;;;2.80;;
12603;SDS011;6367;52.508;13.284;2022-09-06T07:39:48;4.27;;;2.70;;
12603;SDS011;6367;52.508;13.284;2022-09-06T07:42:14;4.73;;;2.43;;
12603;SDS011;6367;52.508;13.284;2022-09-06T07:44:40;3.60;;;2.43;;
12603;SDS011;6367;52.508;13.284;2022-09-06T07:47:06;3.70;;;2.80;;
12603;SDS011;6367;52.508;13.284;2022-09-06T07:49:32;5.30;;;2.70;;
12603;SDS011;6367;52.508;13.284;2022-09-06T07:51:58;4.23;;;2.30;;
12603;SDS011;6367;52.508;13.284;2022-09-06T07:54:23;5.50;;;2.60;;
12603;SDS011;6367;52.508;13.284;2022-09-06T07:56:49;8.20;;;2.30;;
12603;SDS011;6367;52.508;13.284;2022-09-06T07:59:14;5.57;;;2.63;;
12603;SDS011;6367;52.508;13.284;2022-09-06T08:01:40;4.87;;;2.50;;
12603;SDS011;6367;52.508;13.284;2022-09-06T08:04:12;8.53;;;2.47;;
12603;SDS011;6367;52.508;13.284;2022-09-06T08:06:39;4.00;;;3.10;;
12603;SDS011;6367;52.508;13.284;2022-09-06T08:09:10;3.33;;;2.23;;
12603;SDS011;6367;52.508;13.284;2022-09-06T08:11:36;2.73;;;2.47;;
12603;SDS011;6367;52.508;13.284;2022-09-06T08:14:03;6.77;;;2.80;;
12603;SDS011;6367;52.508;13.284;2022-09-06T08:16:30;3.67;;;2.90;;
12603;SDS011;6367;52.508;13.284;2022-09-06T08:18:58;2.60;;;2.40;;
12603;SDS011;6367;52.508;13.284;2022-09-06T08:21:26;4.50;;;3.17;;
12603;SDS011;6367;52.508;13.284;2022-09-06T08:24:11;2.80;;;2.60;;
12603;SDS011;6367;52.508;13.284;2022-09-06T08:26:37;3.23;;;2.93;;
12603;SDS011;6367;52.508;13.284;2022-09-06T08:29:04;3.30;;;2.60;;
12603;SDS011;6367;52.508;13.284;2022-09-06T08:31:32;5.60;;;2.60;;
12603;SDS011;6367;52.508;13.284;2022-09-06T08:34:00;4.53;;;2.60;;
12603;SDS011;6367;52.508;13.284;2022-09-06T08:36:26;7.93;;;3.10;;
12603;SDS011;6367;52.508;13.284;2022-09-06T08:38:58;4.50;;;3.37;;
12603;SDS011;6367;52.508;13.284;2022-09-06T08:41:26;3.77;;;2.83;;
12603;SDS011;6367;52.508;13.284;2022-09-06T08:44:05;6.83;;;3.47;;
12603;SDS011;6367;52.508;13.284;2022-09-06T08:46:33;3.50;;;2.47;;
12603;SDS011;6367;52.508;13.284;2022-09-06T08:49:05;5.77;;;3.03;;
12603;SDS011;6367;52.508;13.284;2022-09-06T08:54:33;6.87;;;3.30;;
12603;SDS011;6367;52.508;13.284;2022-09-06T08:59:36;4.77;;;2.73;;
12603;SDS011;6367;52.508;13.284;2022-09-06T09:04:51;4.63;;;2.97;;
12603;SDS011;6367;52.508;13.284;2022-09-06T09:10:29;4.07;;;3.10;;
12603;SDS011;6367;52.508;13.284;2022-09-06T09:12:59;8.50;;;3.07;;
12603;SDS011;6367;52.508;13.284;2022-09-06T09:15:27;6.90;;;3.00;;
12603;SDS011;6367;52.508;13.284;2022-09-06T09:17:52;4.63;;;2.90;;
12603;SDS011;6367;52.508;13.284;2022-09-06T09:20:19;5.67;;;3.67;;
12603;SDS011;6367;52.508;13.284;2022-09-06T09:22:45;3.87;;;3.00;;
12603;SDS011;6367;52.508;13.284;2022-09-06T09:25:15;3.53;;;2.87;;
12603;SDS011;6367;52.508;13.284;2022-09-06T09:27:44;6.67;;;3.40;;
12603;SDS011;6367;52.508;13.284;2022-09-06T09:30:11;4.03;;;2.53;;
12603;SDS011;6367;52.508;13.284;2022-09-06T09:32:41;4.80;;;2.83;;
12603;SDS011;6367;52.508;13.284;2022-09-06T09:35:19;3.43;;;3.10;;
12603;SDS011;6367;52.508;13.284;2022-09-06T09:38:07;4.07;;;3.03;;
12603;SDS011;6367;52.508;13.284;2022-09-06T09:40:36;3.13;;;2.80;;
12603;SDS011;6367;52.508;13.284;2022-09-06T09:43:15;3.57;;;2.57;;
12603;SDS011;6367;52.508;13.284;2022-09-06T09:46:09;4.90;;;3.23;;
12603;SDS011;6367;52.508;13.284;2022-09-06T09:48:38;3.90;;;3.00;;
12603;SDS011;6367;52.508;13.284;2022-09-06T09:51:38;4.90;;;3.13;;
12603;SDS011;6367;52.508;13.284;2022-09-06T09:54:05;6.60;;;3.40;;
12603;SDS011;6367;52.508;13.284;2022-09-06T09:56:35;5.97;;;3.40;;
12603;SDS011;6367;52.508;13.284;2022-09-06T09:59:01;8.03;;;3.97;;
12603;SDS011;6367;52.508;13.284;2022-09-06T10:01:31;4.93;;;3.43;;
12603;SDS011;6367;52.508;13.284;2022-09-06T10:04:08;4.60;;;3.70;;
12603;SDS011;6367;52.508;13.284;2022-09-06T10:06:36;4.00;;;3.27;;
12603;SDS011;6367;52.508;13.284;2022-09-06T10:10:04;3.47;;;3.03;;
12603;SDS011;6367;52.508;13.284;2022-09-06T10:12:01;9.90;;;3.33;;
12603;SDS011;6367;52.508;13.284;2022-09-06T10:14:46;3.37;;;3.07;;
12603;SDS011;6367;52.508;13.284;2022-09-06T10:17:17;3.60;;;3.30;;
12603;SDS011;6367;52.508;13.284;2022-09-06T10:20:09;4.80;;;3.03;;
12603;SDS011;6367;52.508;13.284;2022-09-06T10:22:42;5.43;;;2.53;;
12603;SDS011;6367;52.508;13.284;2022-09-06T10:25:44;4.67;;;3.50;;
12603;SDS011;6367;52.508;13.284;2022-09-06T10:28:13;4.53;;;3.50;;
12603;SDS011;6367;52.508;13.284;2022-09-06T10:30:50;3.90;;;3.20;;
12603;SDS011;6367;52.508;13.284;2022-09-06T10:33:44;4.63;;;3.73;;
12603;SDS011;6367;52.508;13.284;2022-09-06T10:36:20;4.67;;;2.87;;
12603;SDS011;6367;52.508;13.284;2022-09-06T10:44:22;5.60;;;3.90;;
12603;SDS011;6367;52.508;13.284;2022-09-06T10:47:03;5.43;;;3.50;;
12603;SDS011;6367;52.508;13.284;2022-09-06T10:49:35;5.17;;;3.67;;
12603;SDS011;6367;52.508;13.284;2022-09-06T10:52:02;4.27;;;3.47;;
12603;SDS011;6367;52.508;13.284;2022-09-06T10:54:32;3.27;;;2.97;;
12603;SDS011;6367;52.508;13.284;2022-09-06T10:57:03;4.30;;;3.90;;
12603;SDS011;6367;52.508;13.284;2022-09-06T10:59:46;4.03;;;3.63;;
12603;SDS011;6367;52.508;13.284;2022-09-06T11:05:07;10.53;;;4.23;;
12603;SDS011;6367;52.508;13.284;2022-09-06T11:07:41;4.70;;;4.00;;
12603;SDS011;6367;52.508;13.284;2022-09-06T11:12:42;4.57;;;3.30;;
12603;SDS011;6367;52.508;13.284;2022-09-06T11:15:13;4.33;;;3.93;;
12603;SDS011;6367;52.508;13.284;2022-09-06T11:17:51;5.40;;;3.57;;
12603;SDS011;6367;52.508;13.284;2022-09-06T11:28:54;4.03;;;3.70;;
12603;SDS011;6367;52.508;13.284;2022-09-06T11:31:26;5.27;;;3.90;;
12603;SDS011;6367;52.508;13.284;2022-09-06T11:34:10;3.87;;;3.50;;
12603;SDS011;6367;52.508;13.284;2022-09-06T11:36:46;4.57;;;4.10;;
12603;SDS011;6367;52.508;13.284;2022-09-06T11:39:15;4.57;;;3.70;;
12603;SDS011;6367;52.508;13.284;2022-09-06T11:41:56;7.77;;;4.00;;
12603;SDS011;6367;52.508;13.284;2022-09-06T11:47:45;4.70;;;4.20;;
12603;SDS011;6367;52.508;13.284;2022-09-06T11:55:41;4.50;;;4.03;;
12603;SDS011;6367;52.508;13.284;2022-09-06T11:58:18;5.50;;;3.73;;
12603;SDS011;6367;52.508;13.284;2022-09-06T12:06:21;7.47;;;4.17;;
12603;SDS011;6367;52.508;13.284;2022-09-06T12:08:55;4.03;;;3.73;;
12603;SDS011;6367;52.508;13.284;2022-09-06T12:11:28;3.83;;;3.43;;
12603;SDS011;6367;52.508;13.284;2022-09-06T12:14:07;4.80;;;3.63;;
12603;SDS011;6367;52.508;13.284;2022-09-06T12:28:05;4.27;;;3.87;;
12603;SDS011;6367;52.508;13.284;2022-09-06T12:30:52;5.50;;;3.77;;
12603;SDS011;6367;52.508;13.284;2022-09-06T12:35:50;6.67;;;4.20;;
12603;SDS011;6367;52.508;13.284;2022-09-06T12:38:20;3.73;;;3.43;;
12603;SDS011;6367;52.508;13.284;2022-09-06T12:40:49;6.00;;;3.80;;
12603;SDS011;6367;52.508;13.284;2022-09-06T12:43:22;4.50;;;3.73;;
12603;SDS011;6367;52.508;13.284;2022-09-06T12:45:49;4.30;;;4.00;;
12603;SDS011;6367;52.508;13.284;2022-09-06T12:48:29;4.70;;;3.90;;
12603;SDS011;6367;52.508;13.284;2022-09-06T12:53:25;5.30;;;4.40;;
12603;SDS011;6367;52.508;13.284;2022-09-06T12:56:01;5.00;;;4.60;;
12603;SDS011;6367;52.508;13.284;2022-09-06T12:58:31;6.30;;;4.63;;
12603;SDS011;6367;52.508;13.284;2022-09-06T13:00:59;4.37;;;3.97;;
12603;SDS011;6367;52.508;13.284;2022-09-06T13:03:37;4.87;;;3.60;;
12603;SDS011;6367;52.508;13.284;2022-09-06T13:06:21;4.37;;;4.07;;
12603;SDS011;6367;52.508;13.284;2022-09-06T13:08:52;4.63;;;4.20;;
12603;SDS011;6367;52.508;13.284;2022-09-06T13:11:24;3.90;;;3.60;;
12603;SDS011;6367;52.508;13.284;2022-09-06T13:13:55;4.37;;;3.97;;
12603;SDS011;6367;52.508;13.284;2022-09-06T13:16:25;4.87;;;4.47;;
12603;SDS011;6367;52.508;13.284;2022-09-06T13:18:59;7.20;;;4.80;;
12603;SDS011;6367;52.508;13.284;2022-09-06T13:21:39;6.10;;;3.90;;
12603;SDS011;6367;52.508;13.284;2022-09-06T13:24:19;4.30;;;4.00;;
12603;SDS011;6367;52.508;13.284;2022-09-06T13:26:47;5.87;;;4.10;;
12603;SDS011;6367;52.508;13.284;2022-09-06T13:31:48;8.57;;;4.80;;
12603;SDS011;6367;52.508;13.284;2022-09-06T13:34:20;5.40;;;4.83;;
12603;SDS011;6367;52.508;13.284;2022-09-06T13:36:53;5.90;;;4.63;;
12603;SDS011;6367;52.508;13.284;2022-09-06T13:39:33;6.17;;;4.53;;
12603;SDS011;6367;52.508;13.284;2022-09-06T13:42:03;4.70;;;4.30;;
12603;SDS011;6367;52.508;13.284;2022-09-06T13:44:33;4.57;;;4.17;;
12603;SDS011;6367;52.508;13.284;2022-09-06T13:47:01;10.03;;;4.47;;
12603;SDS011;6367;52.508;13.284;2022-09-06T13:49:27;4.87;;;4.37;;
12603;SDS011;6367;52.508;13.284;2022-09-06T13:51:54;6.13;;;4.40;;
12603;SDS011;6367;52.508;13.284;2022-09-06T13:54:24;5.20;;;4.70;;
12603;SDS011;6367;52.508;13.284;2022-09-06T13:56:50;4.40;;;4.00;;
12603;SDS011;6367;52.508;13.284;2022-09-06T13:59:17;4.53;;;3.83;;
12603;SDS011;6367;52.508;13.284;2022-09-06T14:01:43;4.70;;;4.30;;
12603;SDS011;6367;52.508;13.284;2022-09-06T14:04:11;4.63;;;3.97;;
12603;SDS011;6367;52.508;13.284;2022-09-06T14:06:45;4.87;;;4.40;;
12603;SDS011;6367;52.508;13.284;2022-09-06T14:09:11;7.50;;;4.70;;
12603;SDS011;6367;52.508;13.284;2022-09-06T14:11:37;4.37;;;3.90;;
12603;SDS011;6367;52.508;13.284;2022-09-06T14:14:03;4.90;;;4.20;;
12603;SDS011;6367;52.508;13.284;2022-09-06T14:16:29;5.30;;;4.80;;
12603;SDS011;6367;52.508;13.284;2022-09-06T14:18:55;4.63;;;4.17;;
12603;SDS011;6367;52.508;13.284;2022-09-06T14:21:21;6.63;;;4.77;;
12603;SDS011;6367;52.508;13.284;2022-09-06T14:23:48;4.60;;;4.20;;
12603;SDS011;6367;52.508;13.284;2022-09-06T14:26:15;4.60;;;4.20;;
12603;SDS011;6367;52.508;13.284;2022-09-06T14:28:42;4.77;;;4.47;;
12603;SDS011;6367;52.508;13.284;2022-09-06T14:31:19;4.63;;;4.23;;
12603;SDS011;6367;52.508;13.284;2022-09-06T14:33:46;7.13;;;4.83;;
12603;SDS011;6367;52.508;13.284;2022-09-06T14:36:13;5.20;;;4.80;;
12603;SDS011;6367;52.508;13.284;2022-09-06T14:38:41;4.43;;;4.10;;
12603;SDS011;6367;52.508;13.284;2022-09-06T14:41:08;5.13;;;4.47;;
12603;SDS011;6367;52.508;13.284;2022-09-06T14:43:34;7.10;;;4.60;;
12603;SDS011;6367;52.508;13.284;2022-09-06T14:46:01;5.20;;;4.70;;
12603;SDS011;6367;52.508;13.284;2022-09-06T14:48:31;4.63;;;4.23;;
12603;SDS011;6367;52.508;13.284;2022-09-06T14:50:57;7.77;;;4.33;;
12603;SDS011;6367;52.508;13.284;2022-09-06T14:53:31;7.40;;;4.60;;
12603;SDS011;6367;52.508;13.284;2022-09-06T14:56:01;5.40;;;4.90;;
12603;SDS011;6367;52.508;13.284;2022-09-06T14:58:28;5.87;;;4.63;;
12603;SDS011;6367;52.508;13.284;2022-09-06T15:01:07;5.27;;;4.77;;
12603;SDS011;6367;52.508;13.284;2022-09-06T15:03:35;5.93;;;4.37;;
12603;SDS011;6367;52.508;13.284;2022-09-06T15:06:01;6.17;;;4.50;;
12603;SDS011;6367;52.508;13.284;2022-09-06T15:08:27;5.33;;;4.87;;
12603;SDS011;6367;52.508;13.284;2022-09-06T15:10:53;7.00;;;5.13;;
12603;SDS011;6367;52.508;13.284;2022-09-06T15:13:19;4.63;;;4.23;;
12603;SDS011;6367;52.508;13.284;2022-09-06T15:15:45;4.53;;;4.17;;
12603;SDS011;6367;52.508;13.284;2022-09-06T15:18:11;4.83;;;4.43;;
12603;SDS011;6367;52.508;13.284;2022-09-06T15:20:36;5.50;;;4.50;;
12603;SDS011;6367;52.508;13.284;2022-09-06T15:23:02;4.87;;;4.17;;
12603;SDS011;6367;52.508;13.284;2022-09-06T15:25:29;5.90;;;5.10;;
12603;SDS011;6367;52.508;13.284;2022-09-06T15:27:56;10.60;;;5.67;;
12603;SDS011;6367;52.508;13.284;2022-09-06T15:30:21;5.33;;;4.80;;
12603;SDS011;6367;52.508;13.284;2022-09-06T15:32:47;5.67;;;4.70;;
12603;SDS011;6367;52.508;13.284;2022-09-06T15:35:13;6.23;;;4.77;;
12603;SDS011;6367;52.508;13.284;2022-09-06T15:37:39;9.27;;;4.63;;
12603;SDS011;6367;52.508;13.284;2022-09-06T15:40:05;7.40;;;4.40;;
12603;SDS011;6367;52.508;13.284;2022-09-06T15:42:31;5.00;;;4.50;;
12603;SDS011;6367;52.508;13.284;2022-09-06T15:44:58;4.93;;;4.17;;
12603;SDS011;6367;52.508;13.284;2022-09-06T15:47:24;5.90;;;4.63;;
12603;SDS011;6367;52.508;13.284;2022-09-06T15:49:50;6.67;;;4.80;;
12603;SDS011;6367;52.508;13.284;2022-09-06T15:52:16;5.90;;;4.77;;
12603;SDS011;6367;52.508;13.284;2022-09-06T15:54:42;4.87;;;4.37;;
12603;SDS011;6367;52.508;13.284;2022-09-06T15:57:26;5.13;;;4.30;;
12603;SDS011;6367;52.508;13.284;2022-09-06T15:59:52;4.93;;;4.53;;
12603;SDS011;6367;52.508;13.284;2022-09-06T16:02:18;5.40;;;4.60;;
12603;SDS011;6367;52.508;13.284;2022-09-06T16:04:44;5.47;;;4.80;;
12603;SDS011;6367;52.508;13.284;2022-09-06T16:07:10;6.10;;;4.67;;
12603;SDS011;6367;52.508;13.284;2022-09-06T16:09:36;4.87;;;4.37;;
12603;SDS011;6367;52.508;13.284;2022-09-06T16:12:02;5.83;;;4.43;;
12603;SDS011;6367;52.508;13.284;2022-09-06T16:14:28;6.00;;;4.70;;
12603;SDS011;6367;52.508;13.284;2022-09-06T16:16:53;7.53;;;4.83;;
12603;SDS011;6367;52.508;13.284;2022-09-06T16:19:20;5.50;;;4.77;;
12603;SDS011;6367;52.508;13.284;2022-09-06T16:21:45;6.37;;;4.90;;
12603;SDS011;6367;52.508;13.284;2022-09-06T16:24:11;5.10;;;4.70;;
12603;SDS011;6367;52.508;13.284;2022-09-06T16:26:39;4.67;;;4.10;;
12603;SDS011;6367;52.508;13.284;2022-09-06T16:29:07;4.30;;;4.00;;
12603;SDS011;6367;52.508;13.284;2022-09-06T16:31:34;6.73;;;4.40;;
12603;SDS011;6367;52.508;13.284;2022-09-06T16:34:00;4.30;;;4.00;;
12603;SDS011;6367;52.508;13.284;2022-09-06T16:36:26;4.70;;;4.30;;
12603;SDS011;6367;52.508;13.284;2022-09-06T16:38:52;4.70;;;4.20;;
12603;SDS011;6367;52.508;13.284;2022-09-06T16:41:20;5.80;;;4.47;;
12603;SDS011;6367;52.508;13.284;2022-09-06T16:43:49;5.90;;;3.60;;
12603;SDS011;6367;52.508;13.284;2022-09-06T16:46:16;4.90;;;4.50;;
12603;SDS011;6367;52.508;13.284;2022-09-06T16:48:49;5.70;;;4.87;;